sensor_id;sensor_type;location;lat;lon;timestamp;P1;durP1;ratioP1;P2;durP2;ratioP2
46653;SDS011;38960;51.074;17.004;2024-02-26T00:01:27;47.17;;;21.95;;
46653;SDS011;38960;51.074;17.004;2024-02-26T00:03:53;49.67;;;25.02;;
46653;SDS011;38960;51.074;17.004;2024-02-26T00:06:20;48.85;;;25.67;;
46653;SDS011;38960;51.074;17.004;2024-02-26T00:08:46;52.75;;;25.45;;
46653;SDS011;38960;51.074;17.004;2024-02-26T00:11:11;48.65;;;25.58;;
46653;SDS011;38960;51.074;17.004;2024-02-26T00:13:37;53.60;;;26.02;;
46653;SDS011;38960;51.074;17.004;2024-02-26T00:16:03;47.15;;;25.60;;
46653;SDS011;38960;51.074;17.004;2024-02-26T00:18:29;46.97;;;25.33;;
46653;SDS011;38960;51.074;17.004;2024-02-26T00:20:54;47.42;;;24.35;;
46653;SDS011;38960;51.074;17.004;2024-02-26T00:23:20;51.08;;;25.30;;
46653;SDS011;38960;51.074;17.004;2024-02-26T00:25:45;47.60;;;23.55;;
46653;SDS011;38960;51.074;17.004;2024-02-26T00:28:11;46.20;;;23.73;;
46653;SDS011;38960;51.074;17.004;2024-02-26T00:30:38;43.92;;;25.15;;
46653;SDS011;38960;51.074;17.004;2024-02-26T00:33:04;51.28;;;26.77;;
46653;SDS011;38960;51.074;17.004;2024-02-26T00:35:29;46.92;;;24.95;;
46653;SDS011;38960;51.074;17.004;2024-02-26T00:37:55;46.35;;;25.02;;
46653;SDS011;38960;51.074;17.004;2024-02-26T00:40:20;47.97;;;24.33;;
46653;SDS011;38960;51.074;17.004;2024-02-26T00:42:46;50.03;;;23.90;;
46653;SDS011;38960;51.074;17.004;2024-02-26T00:45:13;47.10;;;24.73;;
46653;SDS011;38960;51.074;17.004;2024-02-26T00:47:39;49.05;;;25.38;;
46653;SDS011;38960;51.074;17.004;2024-02-26T00:50:06;52.67;;;25.35;;
46653;SDS011;38960;51.074;17.004;2024-02-26T00:52:33;49.85;;;25.73;;
46653;SDS011;38960;51.074;17.004;2024-02-26T00:54:59;47.08;;;23.98;;
46653;SDS011;38960;51.074;17.004;2024-02-26T00:57:24;47.17;;;25.50;;
46653;SDS011;38960;51.074;17.004;2024-02-26T00:59:50;47.80;;;26.40;;
46653;SDS011;38960;51.074;17.004;2024-02-26T01:02:16;50.35;;;25.33;;
46653;SDS011;38960;51.074;17.004;2024-02-26T01:04:41;52.08;;;25.05;;
46653;SDS011;38960;51.074;17.004;2024-02-26T01:07:07;46.17;;;24.98;;
46653;SDS011;38960;51.074;17.004;2024-02-26T01:09:32;48.38;;;25.42;;
46653;SDS011;38960;51.074;17.004;2024-02-26T01:11:58;49.53;;;25.63;;
46653;SDS011;38960;51.074;17.004;2024-02-26T01:14:23;53.33;;;25.13;;
46653;SDS011;38960;51.074;17.004;2024-02-26T01:17:08;50.35;;;25.88;;
46653;SDS011;38960;51.074;17.004;2024-02-26T01:19:33;49.83;;;24.48;;
46653;SDS011;38960;51.074;17.004;2024-02-26T01:21:59;47.53;;;24.75;;
46653;SDS011;38960;51.074;17.004;2024-02-26T01:24:24;45.72;;;24.23;;
46653;SDS011;38960;51.074;17.004;2024-02-26T01:26:50;41.50;;;23.45;;
46653;SDS011;38960;51.074;17.004;2024-02-26T01:29:15;46.42;;;25.17;;
46653;SDS011;38960;51.074;17.004;2024-02-26T01:31:41;45.28;;;24.63;;
46653;SDS011;38960;51.074;17.004;2024-02-26T01:34:06;45.47;;;22.73;;
46653;SDS011;38960;51.074;17.004;2024-02-26T01:36:32;42.08;;;22.27;;
46653;SDS011;38960;51.074;17.004;2024-02-26T01:38:57;44.92;;;21.52;;
46653;SDS011;38960;51.074;17.004;2024-02-26T01:41:23;39.20;;;22.20;;
46653;SDS011;38960;51.074;17.004;2024-02-26T01:43:48;42.83;;;20.10;;
46653;SDS011;38960;51.074;17.004;2024-02-26T01:46:14;37.60;;;21.48;;
46653;SDS011;38960;51.074;17.004;2024-02-26T01:48:43;41.30;;;21.83;;
46653;SDS011;38960;51.074;17.004;2024-02-26T01:51:10;38.10;;;19.38;;
46653;SDS011;38960;51.074;17.004;2024-02-26T01:53:36;33.13;;;18.77;;
46653;SDS011;38960;51.074;17.004;2024-02-26T01:56:01;38.15;;;18.70;;
46653;SDS011;38960;51.074;17.004;2024-02-26T01:58:27;36.03;;;20.92;;
46653;SDS011;38960;51.074;17.004;2024-02-26T02:00:55;38.15;;;21.20;;
46653;SDS011;38960;51.074;17.004;2024-02-26T02:03:21;34.28;;;19.25;;
46653;SDS011;38960;51.074;17.004;2024-02-26T02:05:47;33.17;;;17.35;;
46653;SDS011;38960;51.074;17.004;2024-02-26T02:08:12;36.13;;;20.25;;
46653;SDS011;38960;51.074;17.004;2024-02-26T02:10:39;38.65;;;18.67;;
46653;SDS011;38960;51.074;17.004;2024-02-26T02:13:06;37.15;;;18.92;;
46653;SDS011;38960;51.074;17.004;2024-02-26T02:15:32;33.38;;;16.75;;
46653;SDS011;38960;51.074;17.004;2024-02-26T02:17:58;35.95;;;18.35;;
46653;SDS011;38960;51.074;17.004;2024-02-26T02:20:33;29.55;;;17.52;;
46653;SDS011;38960;51.074;17.004;2024-02-26T02:22:59;30.70;;;15.75;;
46653;SDS011;38960;51.074;17.004;2024-02-26T02:25:24;37.42;;;17.70;;
46653;SDS011;38960;51.074;17.004;2024-02-26T02:27:50;38.08;;;17.35;;
46653;SDS011;38960;51.074;17.004;2024-02-26T02:30:17;35.20;;;16.35;;
46653;SDS011;38960;51.074;17.004;2024-02-26T02:32:42;30.55;;;16.20;;
46653;SDS011;38960;51.074;17.004;2024-02-26T02:35:08;31.75;;;17.35;;
46653;SDS011;38960;51.074;17.004;2024-02-26T02:37:34;33.95;;;16.98;;
46653;SDS011;38960;51.074;17.004;2024-02-26T02:39:59;32.38;;;15.73;;
46653;SDS011;38960;51.074;17.004;2024-02-26T02:42:25;36.65;;;17.35;;
46653;SDS011;38960;51.074;17.004;2024-02-26T02:44:51;26.50;;;15.07;;
46653;SDS011;38960;51.074;17.004;2024-02-26T02:47:17;31.02;;;14.65;;
46653;SDS011;38960;51.074;17.004;2024-02-26T02:49:42;29.05;;;15.70;;
46653;SDS011;38960;51.074;17.004;2024-02-26T02:52:08;27.58;;;14.48;;
46653;SDS011;38960;51.074;17.004;2024-02-26T02:54:33;31.48;;;15.50;;
46653;SDS011;38960;51.074;17.004;2024-02-26T02:56:59;29.77;;;16.77;;
46653;SDS011;38960;51.074;17.004;2024-02-26T02:59:24;30.25;;;16.40;;
46653;SDS011;38960;51.074;17.004;2024-02-26T03:01:50;27.55;;;16.10;;
46653;SDS011;38960;51.074;17.004;2024-02-26T03:04:16;29.23;;;14.57;;
46653;SDS011;38960;51.074;17.004;2024-02-26T03:06:41;28.10;;;14.38;;
46653;SDS011;38960;51.074;17.004;2024-02-26T03:09:07;30.02;;;14.20;;
46653;SDS011;38960;51.074;17.004;2024-02-26T03:11:32;27.60;;;14.20;;
46653;SDS011;38960;51.074;17.004;2024-02-26T03:13:58;29.42;;;15.40;;
46653;SDS011;38960;51.074;17.004;2024-02-26T03:16:23;28.38;;;13.57;;
46653;SDS011;38960;51.074;17.004;2024-02-26T03:18:49;30.70;;;15.27;;
46653;SDS011;38960;51.074;17.004;2024-02-26T03:21:14;28.85;;;14.43;;
46653;SDS011;38960;51.074;17.004;2024-02-26T03:23:40;31.48;;;14.80;;
46653;SDS011;38960;51.074;17.004;2024-02-26T03:26:05;27.65;;;14.50;;
46653;SDS011;38960;51.074;17.004;2024-02-26T03:28:31;28.08;;;15.05;;
46653;SDS011;38960;51.074;17.004;2024-02-26T03:30:58;28.65;;;16.08;;
46653;SDS011;38960;51.074;17.004;2024-02-26T03:33:24;37.90;;;16.85;;
46653;SDS011;38960;51.074;17.004;2024-02-26T03:35:50;30.60;;;16.33;;
46653;SDS011;38960;51.074;17.004;2024-02-26T03:38:15;35.17;;;15.00;;
46653;SDS011;38960;51.074;17.004;2024-02-26T03:40:41;30.33;;;14.98;;
46653;SDS011;38960;51.074;17.004;2024-02-26T03:43:06;30.27;;;15.52;;
46653;SDS011;38960;51.074;17.004;2024-02-26T03:45:32;32.40;;;14.88;;
46653;SDS011;38960;51.074;17.004;2024-02-26T03:47:58;30.83;;;15.10;;
46653;SDS011;38960;51.074;17.004;2024-02-26T03:50:23;27.92;;;15.00;;
46653;SDS011;38960;51.074;17.004;2024-02-26T03:52:49;25.77;;;13.82;;
46653;SDS011;38960;51.074;17.004;2024-02-26T03:55:14;27.77;;;14.65;;
46653;SDS011;38960;51.074;17.004;2024-02-26T03:57:40;31.45;;;15.90;;
46653;SDS011;38960;51.074;17.004;2024-02-26T04:00:06;27.17;;;15.20;;
46653;SDS011;38960;51.074;17.004;2024-02-26T04:02:36;25.88;;;14.90;;
46653;SDS011;38960;51.074;17.004;2024-02-26T04:05:01;26.48;;;14.38;;
46653;SDS011;38960;51.074;17.004;2024-02-26T04:07:27;27.77;;;14.82;;
46653;SDS011;38960;51.074;17.004;2024-02-26T04:09:52;30.75;;;14.25;;
46653;SDS011;38960;51.074;17.004;2024-02-26T04:12:18;27.42;;;16.13;;
46653;SDS011;38960;51.074;17.004;2024-02-26T04:14:43;28.50;;;14.48;;
46653;SDS011;38960;51.074;17.004;2024-02-26T04:17:09;28.85;;;14.60;;
46653;SDS011;38960;51.074;17.004;2024-02-26T04:19:36;35.20;;;15.10;;
46653;SDS011;38960;51.074;17.004;2024-02-26T04:22:01;30.52;;;14.80;;
46653;SDS011;38960;51.074;17.004;2024-02-26T04:24:27;30.85;;;16.55;;
46653;SDS011;38960;51.074;17.004;2024-02-26T04:26:52;26.50;;;15.02;;
46653;SDS011;38960;51.074;17.004;2024-02-26T04:29:18;28.45;;;15.43;;
46653;SDS011;38960;51.074;17.004;2024-02-26T04:31:43;25.42;;;14.57;;
46653;SDS011;38960;51.074;17.004;2024-02-26T04:34:11;33.22;;;15.07;;
46653;SDS011;38960;51.074;17.004;2024-02-26T04:36:36;28.08;;;15.45;;
46653;SDS011;38960;51.074;17.004;2024-02-26T04:39:02;26.23;;;14.70;;
46653;SDS011;38960;51.074;17.004;2024-02-26T04:41:27;35.05;;;15.48;;
46653;SDS011;38960;51.074;17.004;2024-02-26T04:43:53;27.55;;;16.80;;
46653;SDS011;38960;51.074;17.004;2024-02-26T04:46:19;28.45;;;15.45;;
46653;SDS011;38960;51.074;17.004;2024-02-26T04:48:47;29.70;;;15.07;;
46653;SDS011;38960;51.074;17.004;2024-02-26T04:51:12;31.63;;;16.10;;
46653;SDS011;38960;51.074;17.004;2024-02-26T04:53:38;27.77;;;15.15;;
46653;SDS011;38960;51.074;17.004;2024-02-26T04:56:04;26.35;;;14.27;;
46653;SDS011;38960;51.074;17.004;2024-02-26T04:58:29;27.92;;;13.38;;
46653;SDS011;38960;51.074;17.004;2024-02-26T05:00:55;29.45;;;14.80;;
46653;SDS011;38960;51.074;17.004;2024-02-26T05:03:21;28.80;;;15.15;;
46653;SDS011;38960;51.074;17.004;2024-02-26T05:05:46;27.48;;;15.02;;
46653;SDS011;38960;51.074;17.004;2024-02-26T05:08:12;28.05;;;14.40;;
46653;SDS011;38960;51.074;17.004;2024-02-26T05:10:37;31.77;;;15.70;;
46653;SDS011;38960;51.074;17.004;2024-02-26T05:13:06;28.63;;;15.52;;
46653;SDS011;38960;51.074;17.004;2024-02-26T05:15:32;27.30;;;15.65;;
46653;SDS011;38960;51.074;17.004;2024-02-26T05:17:57;28.80;;;15.52;;
46653;SDS011;38960;51.074;17.004;2024-02-26T05:20:23;37.13;;;16.88;;
46653;SDS011;38960;51.074;17.004;2024-02-26T05:22:49;35.03;;;16.52;;
46653;SDS011;38960;51.074;17.004;2024-02-26T05:25:15;37.92;;;18.88;;
46653;SDS011;38960;51.074;17.004;2024-02-26T05:27:41;32.90;;;16.50;;
46653;SDS011;38960;51.074;17.004;2024-02-26T05:30:07;29.73;;;16.80;;
46653;SDS011;38960;51.074;17.004;2024-02-26T05:32:32;37.22;;;15.98;;
46653;SDS011;38960;51.074;17.004;2024-02-26T05:34:58;26.58;;;16.23;;
46653;SDS011;38960;51.074;17.004;2024-02-26T05:37:23;31.35;;;17.65;;
46653;SDS011;38960;51.074;17.004;2024-02-26T05:39:49;29.25;;;16.83;;
46653;SDS011;38960;51.074;17.004;2024-02-26T05:42:14;30.83;;;17.35;;
46653;SDS011;38960;51.074;17.004;2024-02-26T05:44:40;29.52;;;15.98;;
46653;SDS011;38960;51.074;17.004;2024-02-26T05:47:05;25.67;;;16.23;;
46653;SDS011;38960;51.074;17.004;2024-02-26T05:49:31;31.35;;;16.92;;
46653;SDS011;38960;51.074;17.004;2024-02-26T05:51:57;28.65;;;17.23;;
46653;SDS011;38960;51.074;17.004;2024-02-26T05:54:23;33.03;;;19.85;;
46653;SDS011;38960;51.074;17.004;2024-02-26T05:56:48;30.40;;;17.95;;
46653;SDS011;38960;51.074;17.004;2024-02-26T05:59:14;26.77;;;17.40;;
46653;SDS011;38960;51.074;17.004;2024-02-26T06:01:41;29.65;;;18.13;;
46653;SDS011;38960;51.074;17.004;2024-02-26T06:04:06;28.65;;;17.58;;
46653;SDS011;38960;51.074;17.004;2024-02-26T06:06:32;32.28;;;19.17;;
46653;SDS011;38960;51.074;17.004;2024-02-26T06:08:57;31.50;;;19.48;;
46653;SDS011;38960;51.074;17.004;2024-02-26T06:11:23;32.72;;;18.55;;
46653;SDS011;38960;51.074;17.004;2024-02-26T06:13:49;31.23;;;19.50;;
46653;SDS011;38960;51.074;17.004;2024-02-26T06:16:14;36.05;;;18.67;;
46653;SDS011;38960;51.074;17.004;2024-02-26T06:18:40;34.83;;;19.77;;
46653;SDS011;38960;51.074;17.004;2024-02-26T06:21:08;30.33;;;18.50;;
46653;SDS011;38960;51.074;17.004;2024-02-26T06:23:34;30.20;;;18.05;;
46653;SDS011;38960;51.074;17.004;2024-02-26T06:26:00;35.95;;;20.65;;
46653;SDS011;38960;51.074;17.004;2024-02-26T06:28:26;37.08;;;20.08;;
46653;SDS011;38960;51.074;17.004;2024-02-26T06:30:51;31.58;;;20.50;;
46653;SDS011;38960;51.074;17.004;2024-02-26T06:33:17;34.70;;;20.95;;
46653;SDS011;38960;51.074;17.004;2024-02-26T06:35:43;34.38;;;20.48;;
46653;SDS011;38960;51.074;17.004;2024-02-26T06:38:09;34.05;;;20.83;;
46653;SDS011;38960;51.074;17.004;2024-02-26T06:40:36;33.90;;;20.63;;
46653;SDS011;38960;51.074;17.004;2024-02-26T06:43:02;35.45;;;20.55;;
46653;SDS011;38960;51.074;17.004;2024-02-26T06:45:28;32.95;;;20.02;;
46653;SDS011;38960;51.074;17.004;2024-02-26T06:47:53;42.70;;;21.33;;
46653;SDS011;38960;51.074;17.004;2024-02-26T06:50:20;36.50;;;21.30;;
46653;SDS011;38960;51.074;17.004;2024-02-26T06:52:46;32.53;;;21.35;;
46653;SDS011;38960;51.074;17.004;2024-02-26T06:55:12;39.45;;;22.13;;
46653;SDS011;38960;51.074;17.004;2024-02-26T06:57:38;34.85;;;20.00;;
46653;SDS011;38960;51.074;17.004;2024-02-26T07:00:04;34.85;;;21.70;;
46653;SDS011;38960;51.074;17.004;2024-02-26T07:02:30;38.95;;;22.70;;
46653;SDS011;38960;51.074;17.004;2024-02-26T07:04:56;37.55;;;22.35;;
46653;SDS011;38960;51.074;17.004;2024-02-26T07:07:23;36.65;;;21.33;;
46653;SDS011;38960;51.074;17.004;2024-02-26T07:09:49;38.45;;;22.20;;
46653;SDS011;38960;51.074;17.004;2024-02-26T07:12:15;33.63;;;22.05;;
46653;SDS011;38960;51.074;17.004;2024-02-26T07:14:41;36.70;;;22.05;;
46653;SDS011;38960;51.074;17.004;2024-02-26T07:17:07;38.20;;;22.48;;
46653;SDS011;38960;51.074;17.004;2024-02-26T07:19:33;33.67;;;21.58;;
46653;SDS011;38960;51.074;17.004;2024-02-26T07:21:59;31.02;;;22.08;;
46653;SDS011;38960;51.074;17.004;2024-02-26T07:24:26;38.20;;;20.95;;
46653;SDS011;38960;51.074;17.004;2024-02-26T07:26:52;29.88;;;21.13;;
46653;SDS011;38960;51.074;17.004;2024-02-26T07:29:19;33.28;;;21.23;;
46653;SDS011;38960;51.074;17.004;2024-02-26T07:31:45;30.00;;;21.10;;
46653;SDS011;38960;51.074;17.004;2024-02-26T07:34:11;36.42;;;22.23;;
46653;SDS011;38960;51.074;17.004;2024-02-26T07:36:36;32.10;;;19.83;;
46653;SDS011;38960;51.074;17.004;2024-02-26T07:39:02;34.78;;;20.38;;
46653;SDS011;38960;51.074;17.004;2024-02-26T07:41:28;35.90;;;20.95;;
46653;SDS011;38960;51.074;17.004;2024-02-26T07:43:53;29.67;;;19.50;;
46653;SDS011;38960;51.074;17.004;2024-02-26T07:46:19;37.15;;;19.10;;
46653;SDS011;38960;51.074;17.004;2024-02-26T07:48:44;29.63;;;19.23;;
46653;SDS011;38960;51.074;17.004;2024-02-26T07:51:12;31.83;;;19.17;;
46653;SDS011;38960;51.074;17.004;2024-02-26T07:53:39;28.85;;;18.73;;
46653;SDS011;38960;51.074;17.004;2024-02-26T07:56:04;26.35;;;19.40;;
46653;SDS011;38960;51.074;17.004;2024-02-26T07:58:30;29.65;;;19.65;;
46653;SDS011;38960;51.074;17.004;2024-02-26T08:00:57;28.77;;;19.10;;
46653;SDS011;38960;51.074;17.004;2024-02-26T08:03:23;29.75;;;19.55;;
46653;SDS011;38960;51.074;17.004;2024-02-26T08:05:48;32.20;;;19.02;;
46653;SDS011;38960;51.074;17.004;2024-02-26T08:08:14;29.38;;;20.42;;
46653;SDS011;38960;51.074;17.004;2024-02-26T08:10:39;28.98;;;19.08;;
46653;SDS011;38960;51.074;17.004;2024-02-26T08:13:05;28.35;;;18.30;;
46653;SDS011;38960;51.074;17.004;2024-02-26T08:15:31;28.73;;;19.38;;
46653;SDS011;38960;51.074;17.004;2024-02-26T08:17:57;27.55;;;19.67;;
46653;SDS011;38960;51.074;17.004;2024-02-26T08:20:23;23.95;;;17.58;;
46653;SDS011;38960;51.074;17.004;2024-02-26T08:22:48;27.25;;;18.15;;
46653;SDS011;38960;51.074;17.004;2024-02-26T08:25:14;24.88;;;15.85;;
46653;SDS011;38960;51.074;17.004;2024-02-26T08:27:41;23.95;;;16.98;;
46653;SDS011;38960;51.074;17.004;2024-02-26T08:30:07;20.83;;;14.73;;
46653;SDS011;38960;51.074;17.004;2024-02-26T08:32:32;23.83;;;16.45;;
46653;SDS011;38960;51.074;17.004;2024-02-26T08:34:58;23.27;;;16.20;;
46653;SDS011;38960;51.074;17.004;2024-02-26T08:37:24;17.67;;;13.38;;
46653;SDS011;38960;51.074;17.004;2024-02-26T08:39:49;24.42;;;14.02;;
46653;SDS011;38960;51.074;17.004;2024-02-26T08:42:14;20.17;;;12.35;;
46653;SDS011;38960;51.074;17.004;2024-02-26T08:44:40;18.90;;;12.82;;
46653;SDS011;38960;51.074;17.004;2024-02-26T08:47:05;21.63;;;13.75;;
46653;SDS011;38960;51.074;17.004;2024-02-26T08:49:31;17.60;;;12.50;;
46653;SDS011;38960;51.074;17.004;2024-02-26T08:51:56;17.00;;;12.05;;
46653;SDS011;38960;51.074;17.004;2024-02-26T08:54:22;18.75;;;11.75;;
46653;SDS011;38960;51.074;17.004;2024-02-26T08:56:49;13.75;;;10.38;;
46653;SDS011;38960;51.074;17.004;2024-02-26T08:59:14;15.18;;;10.63;;
46653;SDS011;38960;51.074;17.004;2024-02-26T09:01:41;17.10;;;9.90;;
46653;SDS011;38960;51.074;17.004;2024-02-26T09:04:07;18.20;;;9.02;;
46653;SDS011;38960;51.074;17.004;2024-02-26T09:06:32;14.68;;;8.93;;
46653;SDS011;38960;51.074;17.004;2024-02-26T09:08:58;11.88;;;8.45;;
46653;SDS011;38960;51.074;17.004;2024-02-26T09:11:23;16.88;;;10.00;;
46653;SDS011;38960;51.074;17.004;2024-02-26T09:13:49;14.57;;;8.30;;
46653;SDS011;38960;51.074;17.004;2024-02-26T09:16:14;14.35;;;7.78;;
46653;SDS011;38960;51.074;17.004;2024-02-26T09:18:40;12.07;;;8.57;;
46653;SDS011;38960;51.074;17.004;2024-02-26T09:21:06;12.45;;;8.52;;
46653;SDS011;38960;51.074;17.004;2024-02-26T09:23:31;13.10;;;8.00;;
46653;SDS011;38960;51.074;17.004;2024-02-26T09:25:58;13.23;;;9.38;;
46653;SDS011;38960;51.074;17.004;2024-02-26T09:28:23;12.82;;;8.13;;
46653;SDS011;38960;51.074;17.004;2024-02-26T09:30:49;12.35;;;7.50;;
46653;SDS011;38960;51.074;17.004;2024-02-26T09:33:15;12.70;;;8.52;;
46653;SDS011;38960;51.074;17.004;2024-02-26T09:35:41;13.38;;;7.65;;
46653;SDS011;38960;51.074;17.004;2024-02-26T09:38:06;12.25;;;7.82;;
46653;SDS011;38960;51.074;17.004;2024-02-26T09:40:32;9.88;;;6.95;;
46653;SDS011;38960;51.074;17.004;2024-02-26T09:43:01;15.88;;;7.97;;
46653;SDS011;38960;51.074;17.004;2024-02-26T09:45:30;9.82;;;7.53;;
46653;SDS011;38960;51.074;17.004;2024-02-26T09:47:56;11.50;;;6.88;;
46653;SDS011;38960;51.074;17.004;2024-02-26T09:50:22;9.48;;;6.80;;
46653;SDS011;38960;51.074;17.004;2024-02-26T09:52:48;11.20;;;7.00;;
46653;SDS011;38960;51.074;17.004;2024-02-26T09:55:14;8.57;;;6.65;;
46653;SDS011;38960;51.074;17.004;2024-02-26T09:57:42;13.90;;;6.63;;
46653;SDS011;38960;51.074;17.004;2024-02-26T10:00:11;11.57;;;6.50;;
46653;SDS011;38960;51.074;17.004;2024-02-26T10:02:46;11.85;;;7.25;;
46653;SDS011;38960;51.074;17.004;2024-02-26T10:05:14;10.95;;;6.82;;
46653;SDS011;38960;51.074;17.004;2024-02-26T10:07:44;13.35;;;7.50;;
46653;SDS011;38960;51.074;17.004;2024-02-26T10:10:10;8.68;;;5.97;;
46653;SDS011;38960;51.074;17.004;2024-02-26T10:12:35;14.00;;;6.30;;
46653;SDS011;38960;51.074;17.004;2024-02-26T10:15:01;12.20;;;6.47;;
46653;SDS011;38960;51.074;17.004;2024-02-26T10:17:26;9.95;;;6.22;;
46653;SDS011;38960;51.074;17.004;2024-02-26T10:19:53;10.55;;;6.20;;
46653;SDS011;38960;51.074;17.004;2024-02-26T10:22:22;8.90;;;5.95;;
46653;SDS011;38960;51.074;17.004;2024-02-26T10:24:48;10.57;;;5.22;;
46653;SDS011;38960;51.074;17.004;2024-02-26T10:27:13;9.88;;;5.80;;
46653;SDS011;38960;51.074;17.004;2024-02-26T10:29:40;8.85;;;6.00;;
46653;SDS011;38960;51.074;17.004;2024-02-26T10:32:08;14.73;;;6.00;;
46653;SDS011;38960;51.074;17.004;2024-02-26T10:34:34;8.63;;;6.72;;
46653;SDS011;38960;51.074;17.004;2024-02-26T10:37:02;10.60;;;6.72;;
46653;SDS011;38960;51.074;17.004;2024-02-26T10:39:28;9.77;;;5.95;;
46653;SDS011;38960;51.074;17.004;2024-02-26T10:41:54;11.15;;;6.00;;
46653;SDS011;38960;51.074;17.004;2024-02-26T10:44:19;9.95;;;6.10;;
46653;SDS011;38960;51.074;17.004;2024-02-26T10:46:46;10.25;;;5.97;;
46653;SDS011;38960;51.074;17.004;2024-02-26T10:49:13;11.75;;;6.55;;
46653;SDS011;38960;51.074;17.004;2024-02-26T10:51:41;10.93;;;6.55;;
46653;SDS011;38960;51.074;17.004;2024-02-26T10:54:10;11.00;;;7.10;;
46653;SDS011;38960;51.074;17.004;2024-02-26T10:56:40;12.15;;;6.85;;
46653;SDS011;38960;51.074;17.004;2024-02-26T10:59:09;14.32;;;6.80;;
46653;SDS011;38960;51.074;17.004;2024-02-26T11:01:35;9.80;;;6.00;;
46653;SDS011;38960;51.074;17.004;2024-02-26T11:04:03;10.07;;;6.57;;
46653;SDS011;38960;51.074;17.004;2024-02-26T11:06:29;13.00;;;6.53;;
46653;SDS011;38960;51.074;17.004;2024-02-26T11:08:55;13.07;;;6.90;;
46653;SDS011;38960;51.074;17.004;2024-02-26T11:11:20;10.95;;;5.85;;
46653;SDS011;38960;51.074;17.004;2024-02-26T11:13:47;9.88;;;6.32;;
46653;SDS011;38960;51.074;17.004;2024-02-26T11:16:25;9.27;;;5.72;;
46653;SDS011;38960;51.074;17.004;2024-02-26T11:18:51;10.10;;;5.45;;
46653;SDS011;38960;51.074;17.004;2024-02-26T11:21:19;11.80;;;6.82;;
46653;SDS011;38960;51.074;17.004;2024-02-26T11:23:52;11.32;;;6.05;;
46653;SDS011;38960;51.074;17.004;2024-02-26T11:26:19;9.02;;;5.95;;
46653;SDS011;38960;51.074;17.004;2024-02-26T11:28:45;12.23;;;5.50;;
46653;SDS011;38960;51.074;17.004;2024-02-26T11:31:11;10.38;;;5.05;;
46653;SDS011;38960;51.074;17.004;2024-02-26T11:33:38;6.47;;;4.18;;
46653;SDS011;38960;51.074;17.004;2024-02-26T11:36:08;7.60;;;3.88;;
46653;SDS011;38960;51.074;17.004;2024-02-26T11:38:34;5.95;;;3.45;;
46653;SDS011;38960;51.074;17.004;2024-02-26T11:41:01;7.35;;;3.63;;
46653;SDS011;38960;51.074;17.004;2024-02-26T11:46:31;5.72;;;3.80;;
46653;SDS011;38960;51.074;17.004;2024-02-26T11:51:55;7.78;;;3.72;;
46653;SDS011;38960;51.074;17.004;2024-02-26T11:57:29;4.55;;;2.78;;
46653;SDS011;38960;51.074;17.004;2024-02-26T11:59:55;7.43;;;3.10;;
46653;SDS011;38960;51.074;17.004;2024-02-26T12:02:40;9.18;;;3.58;;
46653;SDS011;38960;51.074;17.004;2024-02-26T12:05:10;9.07;;;3.30;;
46653;SDS011;38960;51.074;17.004;2024-02-26T12:07:46;12.45;;;3.28;;
46653;SDS011;38960;51.074;17.004;2024-02-26T12:10:23;7.43;;;3.00;;
46653;SDS011;38960;51.074;17.004;2024-02-26T12:15:32;4.97;;;3.35;;
46653;SDS011;38960;51.074;17.004;2024-02-26T12:18:02;4.75;;;3.17;;
46653;SDS011;38960;51.074;17.004;2024-02-26T12:20:29;7.82;;;3.42;;
46653;SDS011;38960;51.074;17.004;2024-02-26T12:22:55;7.63;;;3.30;;
46653;SDS011;38960;51.074;17.004;2024-02-26T12:25:25;5.15;;;3.05;;
46653;SDS011;38960;51.074;17.004;2024-02-26T12:30:18;5.72;;;2.95;;
46653;SDS011;38960;51.074;17.004;2024-02-26T12:32:45;6.93;;;2.80;;
46653;SDS011;38960;51.074;17.004;2024-02-26T12:35:11;5.55;;;3.10;;
46653;SDS011;38960;51.074;17.004;2024-02-26T12:37:38;10.07;;;3.80;;
46653;SDS011;38960;51.074;17.004;2024-02-26T12:40:08;5.75;;;2.90;;
46653;SDS011;38960;51.074;17.004;2024-02-26T12:42:34;8.25;;;3.10;;
46653;SDS011;38960;51.074;17.004;2024-02-26T12:45:08;10.35;;;3.00;;
46653;SDS011;38960;51.074;17.004;2024-02-26T12:47:41;6.82;;;3.25;;
46653;SDS011;38960;51.074;17.004;2024-02-26T12:50:08;7.72;;;3.15;;
46653;SDS011;38960;51.074;17.004;2024-02-26T12:52:35;5.90;;;3.03;;
46653;SDS011;38960;51.074;17.004;2024-02-26T12:55:01;5.63;;;3.30;;
46653;SDS011;38960;51.074;17.004;2024-02-26T12:57:34;11.02;;;3.95;;
46653;SDS011;38960;51.074;17.004;2024-02-26T13:00:01;6.45;;;2.60;;
46653;SDS011;38960;51.074;17.004;2024-02-26T13:02:29;6.28;;;3.03;;
46653;SDS011;38960;51.074;17.004;2024-02-26T13:04:55;8.05;;;3.50;;
46653;SDS011;38960;51.074;17.004;2024-02-26T13:07:22;11.05;;;3.67;;
46653;SDS011;38960;51.074;17.004;2024-02-26T13:09:48;7.13;;;3.50;;
46653;SDS011;38960;51.074;17.004;2024-02-26T13:12:13;19.70;;;3.67;;
46653;SDS011;38960;51.074;17.004;2024-02-26T13:14:39;5.30;;;3.65;;
46653;SDS011;38960;51.074;17.004;2024-02-26T13:17:05;5.15;;;3.30;;
46653;SDS011;38960;51.074;17.004;2024-02-26T13:19:31;6.78;;;3.00;;
46653;SDS011;38960;51.074;17.004;2024-02-26T13:22:06;6.50;;;3.17;;
46653;SDS011;38960;51.074;17.004;2024-02-26T13:24:33;6.85;;;3.35;;
46653;SDS011;38960;51.074;17.004;2024-02-26T13:26:59;7.88;;;3.30;;
46653;SDS011;38960;51.074;17.004;2024-02-26T13:29:25;5.53;;;3.70;;
46653;SDS011;38960;51.074;17.004;2024-02-26T13:31:57;7.47;;;3.03;;
46653;SDS011;38960;51.074;17.004;2024-02-26T13:34:27;8.48;;;4.10;;
46653;SDS011;38960;51.074;17.004;2024-02-26T13:36:53;6.43;;;3.22;;
46653;SDS011;38960;51.074;17.004;2024-02-26T13:39:23;7.55;;;4.03;;
46653;SDS011;38960;51.074;17.004;2024-02-26T13:41:50;6.68;;;3.42;;
46653;SDS011;38960;51.074;17.004;2024-02-26T13:44:16;5.07;;;3.05;;
46653;SDS011;38960;51.074;17.004;2024-02-26T13:46:41;6.70;;;3.47;;
46653;SDS011;38960;51.074;17.004;2024-02-26T13:49:08;7.32;;;4.25;;
46653;SDS011;38960;51.074;17.004;2024-02-26T13:51:34;8.20;;;3.78;;
46653;SDS011;38960;51.074;17.004;2024-02-26T13:54:01;8.35;;;3.80;;
46653;SDS011;38960;51.074;17.004;2024-02-26T13:56:30;6.72;;;3.47;;
46653;SDS011;38960;51.074;17.004;2024-02-26T13:58:56;4.88;;;3.13;;
46653;SDS011;38960;51.074;17.004;2024-02-26T14:01:21;5.13;;;2.95;;
46653;SDS011;38960;51.074;17.004;2024-02-26T14:03:47;6.85;;;2.92;;
46653;SDS011;38960;51.074;17.004;2024-02-26T14:06:13;6.43;;;4.00;;
46653;SDS011;38960;51.074;17.004;2024-02-26T14:08:39;8.05;;;3.67;;
46653;SDS011;38960;51.074;17.004;2024-02-26T14:13:50;4.72;;;2.80;;
46653;SDS011;38960;51.074;17.004;2024-02-26T14:16:16;11.10;;;3.20;;
46653;SDS011;38960;51.074;17.004;2024-02-26T14:18:41;9.73;;;3.20;;
46653;SDS011;38960;51.074;17.004;2024-02-26T14:21:09;8.57;;;3.45;;
46653;SDS011;38960;51.074;17.004;2024-02-26T14:23:35;11.20;;;3.40;;
46653;SDS011;38960;51.074;17.004;2024-02-26T14:26:00;6.30;;;3.22;;
46653;SDS011;38960;51.074;17.004;2024-02-26T14:28:26;8.27;;;3.58;;